Time;durP1;ratioP1;P1;durP2;ratioP2;P2;SDS_P1;SDS_P2;PMS_P1;PMS_P2;Temp;Humidity;BMP_temperature;BMP_pressure;BME280_temperature;BME280_humidity;BME280_pressure;Samples;Min_cycle;Max_cycle;Signal;HPM_P1;HPM_P2
2023/05/15 00:00:31;;;;;;;4.30;3.90;;;;;;;10.16;100.00;100145.13;5012493;28;20227;-72
2023/05/15 00:02:57;;;;;;;4.10;3.67;;;;;;;10.23;100.00;100146.09;5027119;28;20249;-71
2023/05/15 00:05:24;;;;;;;4.40;3.87;;;;;;;10.33;100.00;100146.22;5024960;28;20693;-72
2023/05/15 00:07:51;;;;;;;8.47;3.93;;;;;;;10.25;100.00;100144.38;5020464;28;20215;-76
2023/05/15 00:10:17;;;;;;;5.20;3.73;;;;;;;10.08;100.00;100133.56;5006558;28;20293;-76
2023/05/15 00:12:43;;;;;;;4.30;3.80;;;;;;;10.03;100.00;100145.88;5019056;28;20203;-77
2023/05/15 00:15:10;;;;;;;5.07;4.03;;;;;;;9.91;100.00;100146.59;5022709;28;20645;-76
2023/05/15 00:17:36;;;;;;;5.37;3.80;;;;;;;9.84;100.00;100142.09;5019230;28;20210;-76
2023/05/15 00:20:04;;;;;;;4.10;3.60;;;;;;;9.77;100.00;100142.00;5022476;28;20216;-70
2023/05/15 00:22:30;;;;;;;5.70;3.80;;;;;;;9.71;100.00;100149.00;5024360;28;20199;-69
2023/05/15 00:24:58;;;;;;;5.17;3.67;;;;;;;9.63;100.00;100142.72;5025090;28;20888;-67
2023/05/15 00:27:25;;;;;;;4.47;3.90;;;;;;;9.52;100.00;100143.44;5021849;28;20207;-69
2023/05/15 00:29:51;;;;;;;5.53;4.30;;;;;;;9.43;100.00;100138.91;5016976;28;20294;-69
2023/05/15 00:32:18;;;;;;;4.27;3.87;;;;;;;9.36;100.00;100137.94;5022525;28;20225;-69
2023/05/15 00:34:44;;;;;;;4.73;4.10;;;;;;;9.27;100.00;100132.53;5022461;28;20223;-69
2023/05/15 00:37:11;;;;;;;4.50;3.77;;;;;;;9.21;100.00;100132.47;5017037;28;20682;-69
2023/05/15 00:39:37;;;;;;;3.83;3.40;;;;;;;9.12;100.00;100127.00;5000279;28;20738;-69
2023/05/15 00:42:05;;;;;;;4.97;4.03;;;;;;;9.05;100.00;100136.59;5014671;28;22512;-69
2023/05/15 00:44:33;;;;;;;5.10;4.10;;;;;;;9.04;100.00;100140.09;5021723;28;20233;-74
2023/05/15 00:47:01;;;;;;;5.33;4.30;;;;;;;9.03;100.00;100134.81;5021217;28;20250;-69
2023/05/15 00:49:28;;;;;;;4.67;4.10;;;;;;;9.04;100.00;100145.38;5006894;28;20317;-76
2023/05/15 00:51:56;;;;;;;6.53;4.53;;;;;;;9.05;100.00;100141.88;5021105;28;20230;-72
2023/05/15 00:54:23;;;;;;;5.60;4.27;;;;;;;9.13;100.00;100118.22;5010231;28;20224;-71
2023/05/15 00:56:51;;;;;;;4.70;4.20;;;;;;;9.49;100.00;100136.34;5020680;28;20244;-69
2023/05/15 00:59:18;;;;;;;7.90;4.70;;;;;;;9.49;100.00;100131.06;5018376;28;20200;-67
2023/05/15 01:01:44;;;;;;;4.57;4.13;;;;;;;9.52;100.00;100132.84;5020989;28;20202;-72
2023/05/15 01:04:11;;;;;;;5.50;4.27;;;;;;;9.51;100.00;100126.69;5013285;28;20615;-68
2023/05/15 01:06:37;;;;;;;5.53;4.30;;;;;;;9.52;100.00;100125.81;5013030;28;20236;-68
2023/05/15 01:09:08;;;;;;;6.20;4.80;;;;;;;9.35;100.00;100116.78;5008289;28;20591;-68
2023/05/15 01:11:37;;;;;;;6.07;4.27;;;;;;;9.21;100.00;100124.53;5017003;28;20235;-68
2023/05/15 01:14:06;;;;;;;4.80;4.23;;;;;;;9.06;100.00;100117.25;5008759;28;20624;-69
2023/05/15 01:16:33;;;;;;;5.53;4.50;;;;;;;8.95;100.00;100110.91;5009355;28;20743;-69
2023/05/15 01:19:00;;;;;;;6.87;4.70;;;;;;;8.85;100.00;100119.56;5018441;28;20199;-67
2023/05/15 01:21:33;;;;;;;6.77;4.90;;;;;;;8.76;100.00;100117.66;5025883;28;20302;-68
2023/05/15 01:24:50;;;;;;;6.47;4.80;;;;;;;8.70;100.00;100121.94;5024581;28;20274;-70
2023/05/15 01:27:22;;;;;;;6.37;4.77;;;;;;;8.67;100.00;100112.22;4911859;29;20199;-68
2023/05/15 01:30:05;;;;;;;6.90;5.13;;;;;;;8.70;100.00;100109.63;4990257;28;20538;-66
2023/05/15 01:32:45;;;;;;;6.43;4.57;;;;;;;8.70;100.00;100114.03;5003062;28;20210;-68
2023/05/15 01:35:34;;;;;;;5.63;4.80;;;;;;;8.74;100.00;100111.44;5023017;28;20222;-68
2023/05/15 01:38:20;;;;;;;6.03;4.97;;;;;;;8.73;100.00;100114.97;5025986;28;20782;-67
2023/05/15 01:40:50;;;;;;;7.37;5.17;;;;;;;8.70;100.00;100112.28;5014259;28;20615;-68
2023/05/15 01:43:22;;;;;;;7.70;5.37;;;;;;;8.63;100.00;100112.16;5004521;28;20207;-67
2023/05/15 01:45:48;;;;;;;6.70;5.43;;;;;;;8.67;100.00;100125.41;5025401;28;20224;-68
2023/05/15 01:48:17;;;;;;;6.53;5.40;;;;;;;8.59;100.00;100113.84;5017616;28;20437;-67
2023/05/15 01:50:44;;;;;;;7.73;4.93;;;;;;;8.55;100.00;100119.94;5020428;28;20873;-68
2023/05/15 01:53:11;;;;;;;6.23;5.00;;;;;;;8.50;100.00;100113.72;5020121;28;20290;-67
2023/05/15 01:55:38;;;;;;;8.17;5.50;;;;;;;8.53;100.00;100124.31;5019502;28;20229;-67
2023/05/15 01:58:05;;;;;;;8.17;5.23;;;;;;;8.62;100.00;100119.19;5025232;28;20198;-68
2023/05/15 02:00:33;;;;;;;8.50;5.83;;;;;;;8.55;100.00;100108.50;5020345;28;22679;-67
2023/05/15 02:03:00;;;;;;;8.27;6.00;;;;;;;8.58;100.00;100111.19;5022354;28;20227;-67
2023/05/15 02:05:28;;;;;;;7.87;5.70;;;;;;;8.52;100.00;100116.38;5027523;28;20722;-67
2023/05/15 02:07:55;;;;;;;7.67;5.77;;;;;;;8.63;100.00;100107.75;5023243;28;20710;-68
2023/05/15 02:10:22;;;;;;;8.27;5.83;;;;;;;8.64;100.00;100100.72;5008146;28;20473;-68
2023/05/15 02:12:49;;;;;;;7.87;5.93;;;;;;;8.92;100.00;100113.50;4998739;28;20195;-67
2023/05/15 02:15:16;;;;;;;8.17;5.63;;;;;;;8.98;100.00;100113.59;5016184;28;20242;-67
2023/05/15 02:17:42;;;;;;;10.90;5.93;;;;;;;8.95;100.00;100113.56;5019554;28;20250;-67
2023/05/15 02:20:09;;;;;;;9.27;6.00;;;;;;;8.85;100.00;100111.66;5019898;28;20195;-67
2023/05/15 02:22:35;;;;;;;7.80;5.80;;;;;;;8.86;100.00;100101.97;5024868;28;20209;-68
2023/05/15 02:25:01;;;;;;;8.07;5.87;;;;;;;8.78;100.00;100099.19;5023168;28;20216;-67
2023/05/15 02:27:37;;;;;;;7.30;5.50;;;;;;;8.71;100.00;100108.75;5019191;28;20195;-67
2023/05/15 02:30:31;;;;;;;7.70;5.70;;;;;;;8.59;100.00;100111.22;5019857;28;20752;-67
2023/05/15 02:33:11;;;;;;;8.50;5.90;;;;;;;8.63;100.00;100106.88;5025540;28;20212;-67
2023/05/15 02:35:46;;;;;;;8.13;5.87;;;;;;;8.57;100.00;100112.94;5021824;28;20251;-69
2023/05/15 02:38:17;;;;;;;7.43;5.93;;;;;;;8.52;100.00;100111.97;5004841;28;20201;-68
2023/05/15 02:40:46;;;;;;;6.73;5.43;;;;;;;8.51;100.00;100112.84;5015820;28;20672;-67
2023/05/15 02:43:15;;;;;;;7.27;5.97;;;;;;;8.46;100.00;100118.03;5016627;28;20200;-67
2023/05/15 02:45:45;;;;;;;7.33;5.70;;;;;;;8.44;100.00;100116.25;5014798;28;20228;-67
2023/05/15 02:48:13;;;;;;;8.03;6.03;;;;;;;8.71;100.00;100121.97;5010957;28;20199;-67
2023/05/15 02:50:39;;;;;;;6.73;5.77;;;;;;;8.60;100.00;100120.03;5009072;28;20225;-67
2023/05/15 02:53:08;;;;;;;6.93;5.77;;;;;;;8.64;100.00;100121.84;5016798;28;20202;-67
2023/05/15 02:55:37;;;;;;;7.77;5.80;;;;;;;8.51;100.00;100119.88;5015907;28;20220;-67
2023/05/15 02:58:04;;;;;;;10.30;6.53;;;;;;;8.46;100.00;100111.88;5016339;28;20208;-67
2023/05/15 03:00:30;;;;;;;9.20;6.07;;;;;;;8.40;100.00;100117.91;5009265;28;20219;-67
2023/05/15 03:02:57;;;;;;;7.30;5.63;;;;;;;8.36;100.00;100123.09;5023480;28;20201;-67
2023/05/15 03:05:23;;;;;;;6.70;5.30;;;;;;;8.37;100.00;100104.66;5021165;28;20252;-67
2023/05/15 03:07:49;;;;;;;8.43;5.90;;;;;;;8.33;100.00;100115.09;5021634;28;20205;-67
2023/05/15 03:10:16;;;;;;;8.47;5.93;;;;;;;8.30;100.00;100109.78;5011692;28;20217;-67
2023/05/15 03:12:42;;;;;;;8.37;5.93;;;;;;;8.25;100.00;100111.44;5021611;28;20667;-67
2023/05/15 03:15:09;;;;;;;7.43;5.50;;;;;;;8.20;100.00;100115.75;5014763;28;20242;-67
2023/05/15 03:17:35;;;;;;;9.00;6.33;;;;;;;8.20;100.00;100111.38;5013240;28;20211;-67
2023/05/15 03:20:03;;;;;;;7.80;6.03;;;;;;;8.15;100.00;100106.00;5017577;28;20211;-67
2023/05/15 03:22:29;;;;;;;9.20;6.43;;;;;;;8.17;100.00;100106.94;5020694;28;20208;-67
2023/05/15 03:24:56;;;;;;;8.67;6.63;;;;;;;8.15;100.00;100108.66;5030657;28;20649;-67
2023/05/15 03:27:22;;;;;;;9.53;6.60;;;;;;;8.20;100.00;100105.19;5027830;28;20204;-67
2023/05/15 03:29:49;;;;;;;8.57;6.20;;;;;;;8.16;100.00;100101.63;5006542;28;20224;-66
2023/05/15 03:32:16;;;;;;;9.13;5.90;;;;;;;8.16;100.00;100102.50;5023769;28;20739;-67
2023/05/15 03:34:43;;;;;;;9.07;6.83;;;;;;;8.29;100.00;100100.97;5026991;28;20220;-68
2023/05/15 03:37:09;;;;;;;10.03;7.03;;;;;;;8.32;100.00;100095.75;5026095;28;20212;-65
2023/05/15 03:39:35;;;;;;;10.47;6.67;;;;;;;8.35;100.00;100094.94;5023158;28;20200;-67
2023/05/15 03:42:02;;;;;;;9.70;6.37;;;;;;;8.35;100.00;100103.75;5030726;28;20219;-67
2023/05/15 03:44:29;;;;;;;7.80;5.83;;;;;;;8.25;100.00;100106.16;5018611;28;20219;-67
2023/05/15 03:46:55;;;;;;;8.53;6.63;;;;;;;8.22;100.00;100098.19;4995737;28;20681;-68
2023/05/15 03:49:21;;;;;;;8.80;6.57;;;;;;;8.19;100.00;100101.69;5020539;28;20291;-67
2023/05/15 03:51:48;;;;;;;11.07;6.07;;;;;;;8.14;100.00;100100.72;5022568;28;20208;-67
2023/05/15 03:54:14;;;;;;;8.53;6.50;;;;;;;8.11;100.00;100105.94;5025929;28;20226;-67
2023/05/15 03:56:41;;;;;;;10.33;6.00;;;;;;;8.16;100.00;100105.16;5013423;28;20222;-67
2023/05/15 03:59:07;;;;;;;7.73;6.13;;;;;;;8.22;100.00;100108.75;5012216;28;20721;-67
2023/05/15 04:01:33;;;;;;;8.17;6.20;;;;;;;8.28;100.00;100103.59;5020641;28;20250;-68
2023/05/15 04:04:09;;;;;;;9.53;5.93;;;;;;;8.36;100.00;100105.53;5024605;28;20544;-67
2023/05/15 04:06:35;;;;;;;7.67;6.10;;;;;;;8.42;100.00;100104.78;5028545;28;20232;-68
2023/05/15 04:09:02;;;;;;;9.07;6.63;;;;;;;8.49;100.00;100104.00;5008101;28;20226;-67
2023/05/15 04:11:28;;;;;;;9.97;6.97;;;;;;;8.55;100.00;100112.03;5022304;28;20229;-68
2023/05/15 04:13:54;;;;;;;10.87;7.60;;;;;;;8.59;100.00;100105.03;5022684;28;20260;-67
2023/05/15 04:16:21;;;;;;;9.67;7.33;;;;;;;8.68;100.00;100107.84;5020630;28;20201;-67
2023/05/15 04:18:47;;;;;;;10.67;7.50;;;;;;;8.73;100.00;100108.78;5014030;28;20216;-68
2023/05/15 04:21:13;;;;;;;10.07;7.20;;;;;;;8.77;100.00;100105.34;5019316;28;20881;-67
2023/05/15 04:23:40;;;;;;;10.50;7.40;;;;;;;8.89;100.00;100115.22;5015605;28;20207;-67
2023/05/15 04:26:07;;;;;;;12.80;7.37;;;;;;;8.96;100.00;100107.41;5014604;28;20213;-68
2023/05/15 04:28:33;;;;;;;11.40;7.17;;;;;;;9.03;100.00;100106.63;5011621;28;20245;-67
2023/05/15 04:31:00;;;;;;;10.67;7.43;;;;;;;9.11;100.00;100107.63;5017547;28;20196;-67
2023/05/15 04:33:26;;;;;;;10.37;7.73;;;;;;;9.23;100.00;100114.88;5007416;28;20216;-68
2023/05/15 04:35:52;;;;;;;14.57;8.63;;;;;;;9.31;100.00;100115.84;5024605;28;20225;-68
2023/05/15 04:38:19;;;;;;;12.13;8.07;;;;;;;9.39;100.00;100116.84;5027718;28;20248;-68
2023/05/15 04:40:45;;;;;;;16.27;10.07;;;;;;;9.51;100.00;100110.81;5019461;28;20536;-67
2023/05/15 04:43:12;;;;;;;19.20;10.90;;;;;;;9.61;100.00;100114.50;5021178;28;20728;-67
2023/05/15 04:45:38;;;;;;;16.57;10.63;;;;;;;9.69;100.00;100104.91;5010944;28;20245;-67
2023/05/15 04:48:05;;;;;;;17.77;10.13;;;;;;;9.79;100.00;100105.88;5031121;28;20230;-67
2023/05/15 04:50:31;;;;;;;16.87;10.67;;;;;;;9.91;100.00;100111.31;5022351;28;20778;-67
2023/05/15 04:52:58;;;;;;;19.27;11.07;;;;;;;9.98;100.00;100114.03;5028536;28;20615;-67
2023/05/15 04:55:24;;;;;;;16.03;9.63;;;;;;;10.05;100.00;100115.03;5030669;28;20217;-68
2023/05/15 04:57:51;;;;;;;14.83;8.97;;;;;;;10.12;100.00;100115.97;5026231;28;20277;-75
2023/05/15 05:00:17;;;;;;;15.40;9.00;;;;;;;10.15;100.00;100110.72;5001005;28;20637;-77
2023/05/15 05:02:44;;;;;;;13.93;8.57;;;;;;;10.26;100.00;100109.09;5030466;28;20206;-76
2023/05/15 05:05:13;;;;;;;13.57;8.43;;;;;;;10.39;100.00;100110.09;5012890;28;20226;-74
2023/05/15 05:07:39;;;;;;;13.30;8.30;;;;;;;10.51;100.00;100111.13;5021244;28;20222;-76
2023/05/15 05:10:07;;;;;;;11.03;7.70;;;;;;;10.60;100.00;100112.94;5018196;28;20250;-71
2023/05/15 05:12:33;;;;;;;10.83;7.40;;;;;;;10.67;100.00;100113.00;5023520;28;20682;-69
2023/05/15 05:14:59;;;;;;;10.20;7.57;;;;;;;10.74;100.00;100106.00;5023738;28;20248;-69
2023/05/15 05:17:26;;;;;;;10.00;7.07;;;;;;;10.76;100.00;100116.59;5026304;28;20206;-77
2023/05/15 05:19:52;;;;;;;8.90;7.00;;;;;;;10.97;100.00;100111.47;4998140;28;20889;-70
2023/05/15 05:22:18;;;;;;;11.60;7.23;;;;;;;11.12;100.00;100106.28;5011281;28;20202;-71
2023/05/15 05:24:45;;;;;;;14.60;7.27;;;;;;;11.31;100.00;100112.59;5023074;28;20284;-74
2023/05/15 05:27:11;;;;;;;11.30;7.60;;;;;;;11.68;100.00;100118.09;4982397;28;20200;-77
2023/05/15 05:29:38;;;;;;;9.47;7.30;;;;;;;12.03;100.00;100118.28;5012910;28;20215;-75
2023/05/15 05:32:06;;;;;;;13.03;7.13;;;;;;;12.34;100.00;100113.91;5023524;28;20210;-75
2023/05/15 05:34:32;;;;;;;11.57;6.93;;;;;;;12.77;100.00;100115.69;5014107;28;20733;-77
2023/05/15 05:36:58;;;;;;;9.50;6.70;;;;;;;13.08;100.00;100110.38;5023727;28;20248;-71
2023/05/15 05:39:25;;;;;;;11.27;7.00;;;;;;;13.36;100.00;100117.47;5023738;28;20283;-69
2023/05/15 05:41:51;;;;;;;9.50;6.17;;;;;;;13.65;100.00;100120.06;5010141;28;20211;-69
2023/05/15 05:44:18;;;;;;;10.70;5.87;;;;;;;13.96;100.00;100122.56;5028179;28;20223;-68
2023/05/15 05:46:44;;;;;;;7.30;5.97;;;;;;;14.13;100.00;100120.72;5027064;28;20619;-70
2023/05/15 05:49:11;;;;;;;10.67;5.90;;;;;;;14.21;100.00;100116.22;5022661;28;20211;-70
2023/05/15 05:51:37;;;;;;;7.93;5.67;;;;;;;14.30;100.00;100120.63;5027609;28;20203;-70
2023/05/15 05:54:04;;;;;;;10.00;5.20;;;;;;;14.29;100.00;100116.19;5023950;28;20200;-70
2023/05/15 05:56:30;;;;;;;6.27;4.87;;;;;;;14.39;100.00;100115.22;5019285;28;20235;-70
2023/05/15 05:58:58;;;;;;;6.70;4.47;;;;;;;14.60;100.00;100107.13;5028424;28;20195;-68
2023/05/15 06:01:25;;;;;;;6.33;5.00;;;;;;;14.80;100.00;100116.72;5021223;28;20580;-67
2023/05/15 06:03:52;;;;;;;6.97;4.60;;;;;;;14.91;98.46;100122.88;5015368;28;20200;-67
2023/05/15 06:06:18;;;;;;;6.50;4.43;;;;;;;15.06;97.98;100120.06;5011217;28;20251;-66
2023/05/15 06:08:45;;;;;;;5.60;4.33;;;;;;;15.30;98.01;100121.63;5024383;28;20257;-66
2023/05/15 06:11:11;;;;;;;7.00;4.63;;;;;;;15.63;97.06;100109.75;5025246;28;20339;-69
2023/05/15 06:13:38;;;;;;;5.20;4.40;;;;;;;15.90;95.50;100121.84;5018861;28;20199;-67
2023/05/15 06:16:04;;;;;;;8.17;4.67;;;;;;;16.20;95.35;100113.44;5025178;28;20715;-67
2023/05/15 06:18:31;;;;;;;6.90;5.00;;;;;;;16.49;92.55;100115.69;5030064;28;20227;-66
2023/05/15 06:20:59;;;;;;;6.33;4.60;;;;;;;17.55;87.98;100112.97;5023380;28;20194;-66
2023/05/15 06:23:26;;;;;;;9.63;5.70;;;;;;;18.20;82.18;100112.56;5020248;28;20207;-67
2023/05/15 06:25:52;;;;;;;9.60;6.07;;;;;;;17.95;81.75;100119.38;5020596;28;20215;-68
2023/05/15 06:28:19;;;;;;;9.40;6.17;;;;;;;17.92;82.35;100120.31;5022087;28;20207;-67
2023/05/15 06:30:45;;;;;;;12.27;5.57;;;;;;;17.66;80.33;100131.53;5017020;28;20250;-67
2023/05/15 06:33:11;;;;;;;10.73;8.00;;;;;;;17.42;79.07;100123.97;5006402;28;20271;-66
2023/05/15 06:35:38;;;;;;;11.90;8.93;;;;;;;16.93;80.16;100132.88;5023546;28;20224;-67
2023/05/15 06:38:04;;;;;;;18.43;10.07;;;;;;;16.49;82.33;100123.72;5024503;28;20245;-66
2023/05/15 06:40:30;;;;;;;14.67;9.73;;;;;;;16.49;83.22;100128.19;5018838;28;20191;-67
2023/05/15 06:42:57;;;;;;;14.67;10.53;;;;;;;16.51;83.07;100127.25;5024104;28;20411;-69
2023/05/15 06:45:24;;;;;;;18.53;12.40;;;;;;;16.71;81.42;100132.31;5023161;28;20223;-67
2023/05/15 06:47:50;;;;;;;18.90;12.20;;;;;;;16.83;82.28;100134.81;5028862;28;20290;-67
2023/05/15 06:50:17;;;;;;;23.70;13.97;;;;;;;16.61;81.68;100139.56;5023553;28;20299;-65
2023/05/15 06:52:43;;;;;;;22.00;13.77;;;;;;;16.64;81.28;100146.66;5022119;28;20261;-67
2023/05/15 06:55:09;;;;;;;22.80;14.00;;;;;;;16.03;84.14;100136.84;5029232;28;20266;-67
2023/05/15 06:57:36;;;;;;;23.60;13.90;;;;;;;16.02;85.08;100139.53;5025983;28;20211;-68
2023/05/15 07:00:04;;;;;;;24.07;13.80;;;;;;;16.14;84.75;100140.25;5019442;28;20280;-68
2023/05/15 07:02:30;;;;;;;23.37;14.53;;;;;;;16.09;85.83;100138.56;5024586;28;20663;-70
2023/05/15 07:04:56;;;;;;;21.73;13.97;;;;;;;16.03;85.85;100138.63;5019545;28;20263;-69
2023/05/15 07:07:23;;;;;;;24.27;15.17;;;;;;;16.35;84.96;100131.03;5021678;28;20200;-66
2023/05/15 07:09:49;;;;;;;23.97;15.33;;;;;;;16.42;85.26;100135.41;5026878;28;20259;-67
2023/05/15 07:12:16;;;;;;;21.83;13.80;;;;;;;16.58;84.00;100136.94;5025800;28;20207;-67
2023/05/15 07:14:42;;;;;;;21.50;13.87;;;;;;;16.96;80.08;100134.59;5021120;28;20215;-67
2023/05/15 07:17:09;;;;;;;23.23;13.73;;;;;;;17.32;79.47;100138.44;5029286;28;20207;-66
2023/05/15 07:19:40;;;;;;;21.23;13.57;;;;;;;16.77;81.54;100125.97;5046825;28;20183;-69
2023/05/15 07:22:12;;;;;;;24.53;14.23;;;;;;;16.63;81.57;100134.19;5024938;28;20648;-68
2023/05/15 07:24:38;;;;;;;22.37;13.87;;;;;;;17.09;80.87;100133.47;5024077;28;20263;-68
2023/05/15 07:27:06;;;;;;;24.67;14.37;;;;;;;17.18;79.75;100130.63;5019260;28;20656;-71
2023/05/15 07:29:32;;;;;;;27.97;16.17;;;;;;;17.27;79.90;100129.63;5037707;28;20196;-66
2023/05/15 07:31:59;;;;;;;24.83;14.93;;;;;;;16.95;81.28;100131.06;5035495;28;20196;-70
2023/05/15 07:34:25;;;;;;;24.87;15.30;;;;;;;17.07;81.14;100127.28;5025961;28;20231;-66
2023/05/15 07:36:52;;;;;;;26.63;15.67;;;;;;;17.48;78.39;100135.44;5027859;28;20741;-67
2023/05/15 07:39:18;;;;;;;27.83;16.00;;;;;;;17.15;80.89;100133.38;5029708;28;20203;-70
2023/05/15 07:41:45;;;;;;;26.80;15.30;;;;;;;17.50;78.82;100130.94;5028662;28;20199;-68
2023/05/15 07:44:12;;;;;;;25.90;15.07;;;;;;;17.54;77.17;100132.63;5035068;28;20215;-66
2023/05/15 07:46:38;;;;;;;26.77;16.40;;;;;;;18.29;74.00;100131.13;5040889;28;20230;-68
2023/05/15 07:49:05;;;;;;;27.07;15.40;;;;;;;18.85;73.21;100126.28;5036890;28;20231;-67
2023/05/15 07:51:34;;;;;;;27.40;14.70;;;;;;;19.48;69.96;100127.34;5025668;28;20224;-68
2023/05/15 07:54:02;;;;;;;24.33;14.57;;;;;;;20.21;66.78;100127.97;5042916;28;20196;-68
2023/05/15 07:56:29;;;;;;;27.13;14.87;;;;;;;20.04;68.07;100133.84;5013002;28;20482;-68
2023/05/15 07:58:56;;;;;;;24.60;14.87;;;;;;;19.89;65.81;100132.47;5024697;28;20241;-68
2023/05/15 08:01:22;;;;;;;26.50;15.07;;;;;;;20.28;66.26;100124.16;5025327;28;20221;-68
2023/05/15 08:03:48;;;;;;;27.43;14.73;;;;;;;19.38;67.30;100124.03;5022963;28;20231;-68
2023/05/15 08:06:15;;;;;;;25.60;15.43;;;;;;;19.57;67.32;100119.94;5018051;28;20242;-69
2023/05/15 08:08:41;;;;;;;25.67;14.23;;;;;;;19.28;68.29;100127.88;5019743;28;20609;-68
2023/05/15 08:11:08;;;;;;;23.63;14.50;;;;;;;18.97;69.83;100125.09;5018338;28;20223;-68
2023/05/15 08:13:34;;;;;;;24.90;15.23;;;;;;;19.17;68.50;100121.88;5015326;28;20223;-70
2023/05/15 08:16:00;;;;;;;30.20;15.80;;;;;;;18.81;69.77;100121.91;5015915;28;20591;-66
2023/05/15 08:18:27;;;;;;;24.07;14.57;;;;;;;19.08;70.21;100123.03;5017026;28;20278;-68
2023/05/15 08:20:53;;;;;;;28.10;15.57;;;;;;;18.87;69.83;100107.47;5025766;28;20729;-69
2023/05/15 08:23:19;;;;;;;29.90;16.47;;;;;;;18.76;71.16;100124.69;5025796;28;20232;-68
2023/05/15 08:25:46;;;;;;;26.93;16.13;;;;;;;19.13;70.07;100122.91;5021804;28;20595;-68
2023/05/15 08:28:12;;;;;;;26.90;15.50;;;;;;;18.81;70.80;100121.91;5007366;28;20223;-68
2023/05/15 08:30:39;;;;;;;30.37;15.53;;;;;;;19.05;71.15;100120.41;5028634;28;20223;-67
2023/05/15 08:33:05;;;;;;;26.47;14.80;;;;;;;19.36;70.77;100124.06;5026357;28;20616;-68
2023/05/15 08:35:32;;;;;;;27.67;15.90;;;;;;;18.51;71.88;100128.84;5022667;28;20755;-67
2023/05/15 08:37:58;;;;;;;26.53;15.03;;;;;;;18.32;74.24;100123.03;5017018;28;20192;-67
2023/05/15 08:40:25;;;;;;;28.83;15.67;;;;;;;18.29;72.37;100124.88;5016135;28;20679;-67
2023/05/15 08:43:02;;;;;;;30.03;15.87;;;;;;;18.32;73.66;100124.81;5016805;28;20199;-68
2023/05/15 08:45:28;;;;;;;29.63;16.13;;;;;;;18.24;74.44;100125.00;5016293;28;20258;-68
2023/05/15 08:47:57;;;;;;;29.73;15.83;;;;;;;18.22;73.88;100131.31;5016612;28;20192;-67
2023/05/15 08:50:25;;;;;;;30.70;15.77;;;;;;;18.06;74.99;100134.34;5013851;28;20315;-69
2023/05/15 08:52:57;;;;;;;28.73;15.43;;;;;;;18.03;75.50;100128.16;4992949;28;20201;-67
2023/05/15 08:55:23;;;;;;;28.77;15.30;;;;;;;18.20;75.53;100123.31;5020705;28;20273;-68
2023/05/15 08:57:50;;;;;;;25.00;15.37;;;;;;;18.16;73.77;100125.16;5016608;28;20214;-70
2023/05/15 09:00:19;;;;;;;24.87;14.17;;;;;;;18.26;73.87;100116.91;4999485;28;20192;-68
2023/05/15 09:02:46;;;;;;;23.90;14.33;;;;;;;18.16;73.99;100113.56;5019879;28;20583;-67
2023/05/15 09:05:12;;;;;;;22.57;13.63;;;;;;;18.12;74.31;100127.94;5015111;28;20231;-67
2023/05/15 09:07:40;;;;;;;27.87;14.23;;;;;;;18.41;73.61;100112.09;4989844;28;20314;-68
2023/05/15 09:10:08;;;;;;;29.67;14.57;;;;;;;18.61;72.76;100114.31;5020335;28;20839;-69
2023/05/15 09:12:40;;;;;;;24.53;14.33;;;;;;;18.68;72.61;100107.03;5018699;28;20211;-67
2023/05/15 09:15:16;;;;;;;25.13;14.40;;;;;;;18.97;72.05;100114.38;5018050;28;20293;-67
2023/05/15 09:17:43;;;;;;;28.07;14.87;;;;;;;19.36;71.36;100115.13;5016993;28;20286;-68
2023/05/15 09:20:29;;;;;;;25.17;14.87;;;;;;;18.93;70.91;100118.03;5016223;28;20192;-67
2023/05/15 09:22:58;;;;;;;28.97;15.00;;;;;;;18.97;70.80;100119.72;5016015;28;20218;-66
2023/05/15 09:25:37;;;;;;;24.63;14.67;;;;;;;18.71;71.98;100121.25;5014076;28;20616;-67
2023/05/15 09:28:06;;;;;;;27.23;14.07;;;;;;;18.90;72.77;100110.06;5020040;28;20203;-67
2023/05/15 09:30:33;;;;;;;24.97;13.40;;;;;;;19.09;72.32;100108.69;5003356;28;20742;-68
2023/05/15 09:33:02;;;;;;;25.40;13.33;;;;;;;19.74;69.92;100106.03;5015162;28;20560;-68
2023/05/15 09:35:37;;;;;;;23.77;13.73;;;;;;;19.84;69.73;100104.84;5015189;28;20227;-67
2023/05/15 09:38:08;;;;;;;24.73;13.53;;;;;;;19.98;67.63;100107.13;5019732;28;20548;-67
2023/05/15 09:40:35;;;;;;;20.67;12.73;;;;;;;19.98;68.34;100107.13;5015598;28;20196;-67
2023/05/15 09:43:01;;;;;;;22.40;13.03;;;;;;;20.24;67.36;100103.66;5002081;28;20253;-68
2023/05/15 09:45:28;;;;;;;21.03;12.67;;;;;;;19.93;67.68;100091.13;5018956;28;20714;-67
2023/05/15 09:47:58;;;;;;;23.37;13.43;;;;;;;20.03;66.95;100097.13;5010630;28;20251;-69
2023/05/15 09:50:33;;;;;;;23.00;13.47;;;;;;;20.09;67.97;100096.06;5016341;28;20247;-68
2023/05/15 09:52:59;;;;;;;22.37;13.03;;;;;;;20.29;67.14;100091.81;5022499;28;20195;-66
2023/05/15 09:55:26;;;;;;;17.35;11.90;;;;;;;20.74;66.25;100102.09;5021914;28;20336;-68
2023/05/15 09:58:13;;;;;;;19.85;12.35;;;;;;;20.95;65.95;100090.63;5017650;28;20200;-66
2023/05/15 10:00:41;;;;;;;18.85;11.18;;;;;;;21.22;64.19;100088.78;5028028;28;20619;-67
2023/05/15 10:03:15;;;;;;;18.77;11.95;;;;;;;21.39;62.46;100080.13;5017013;28;20691;-67
2023/05/15 10:05:42;;;;;;;20.40;12.23;;;;;;;21.65;61.22;100087.28;5015539;28;20224;-67
2023/05/15 10:08:10;;;;;;;22.75;12.85;;;;;;;21.35;60.83;100083.00;5015590;28;20227;-66
2023/05/15 10:10:37;;;;;;;24.58;13.60;;;;;;;21.50;60.78;100094.09;5000391;28;20616;-66
2023/05/15 10:13:06;;;;;;;21.08;12.13;;;;;;;21.87;59.91;100079.25;5015318;28;20656;-66
2023/05/15 10:15:33;;;;;;;17.60;10.85;;;;;;;21.65;57.44;100087.28;5014893;28;20220;-66
2023/05/15 10:18:02;;;;;;;17.58;10.60;;;;;;;21.64;58.72;100085.53;5015421;28;20200;-66
2023/05/15 10:20:30;;;;;;;16.92;11.13;;;;;;;21.54;59.52;100081.38;5014720;28;20198;-67
2023/05/15 10:22:58;;;;;;;17.35;11.48;;;;;;;21.68;57.62;100072.81;5014580;28;20203;-69
2023/05/15 10:25:42;;;;;;;18.23;10.23;;;;;;;21.51;58.87;100073.41;4997342;28;20223;-66
2023/05/15 10:28:10;;;;;;;15.90;10.43;;;;;;;21.45;59.23;100066.44;5014730;28;20200;-66
2023/05/15 10:30:37;;;;;;;19.75;11.45;;;;;;;21.39;58.69;100071.19;5013670;28;20215;-66
2023/05/15 10:33:05;;;;;;;16.17;11.35;;;;;;;21.40;60.07;100067.53;5016624;28;20621;-68
2023/05/15 10:35:33;;;;;;;24.67;12.93;;;;;;;21.59;60.87;100066.81;5017767;28;20227;-66
2023/05/15 10:38:03;;;;;;;22.58;13.73;;;;;;;21.20;61.75;100057.44;5018346;28;20270;-66
2023/05/15 10:40:29;;;;;;;21.23;13.65;;;;;;;20.69;62.45;100057.41;5012562;28;20249;-66
2023/05/15 10:42:59;;;;;;;20.98;13.25;;;;;;;20.44;64.63;100060.94;5014488;28;20235;-66
2023/05/15 10:45:27;;;;;;;21.42;13.07;;;;;;;20.00;64.74;100052.38;5014588;28;20866;-67
2023/05/15 10:47:55;;;;;;;20.73;13.35;;;;;;;19.97;66.10;100049.78;5019496;28;20329;-68
2023/05/15 10:50:21;;;;;;;19.60;13.23;;;;;;;19.98;66.90;100038.09;5004047;28;20200;-69
2023/05/15 10:52:51;;;;;;;18.92;12.73;;;;;;;20.03;66.30;100046.94;5002563;28;20196;-69
2023/05/15 10:55:18;;;;;;;18.75;11.25;;;;;;;20.10;63.42;100039.56;5008423;28;20222;-69
2023/05/15 10:57:46;;;;;;;17.23;11.15;;;;;;;20.49;62.29;100026.69;5026430;28;20222;-69
2023/05/15 11:00:21;;;;;;;18.38;11.15;;;;;;;20.54;61.05;100032.78;5000761;28;20230;-69
2023/05/15 11:02:52;;;;;;;19.00;10.98;;;;;;;20.81;59.57;100022.91;5015667;28;20226;-69
2023/05/15 11:05:19;;;;;;;17.63;11.70;;;;;;;20.96;57.83;100017.00;5024643;28;20227;-69
2023/05/15 11:08:24;;;;;;;15.18;10.10;;;;;;;21.05;56.86;100025.66;5020576;28;20204;-69
2023/05/15 11:10:53;;;;;;;15.73;10.85;;;;;;;20.97;54.27;100023.25;5014961;28;20243;-69
2023/05/15 11:13:20;;;;;;;17.95;11.38;;;;;;;21.13;54.34;100011.00;5021434;28;20202;-69
2023/05/15 11:15:47;;;;;;;15.98;11.40;;;;;;;21.41;53.84;100010.91;5019546;28;20597;-69
2023/05/15 11:18:14;;;;;;;15.68;9.85;;;;;;;21.15;54.87;100009.13;5016073;28;20676;-68
2023/05/15 11:21:01;;;;;;;16.83;10.70;;;;;;;21.10;52.68;100008.41;5003141;28;20224;-67